sensor_id;sensor_type;location;lat;lon;timestamp;P1;durP1;ratioP1;P2;durP2;ratioP2
83704;SDS011;73687;55.712;12.564;2024-01-15T00:01:07;4.1;;;1.9;;
83704;SDS011;73687;55.712;12.564;2024-01-15T00:04:07;3.0;;;1.4;;
83704;SDS011;73687;55.712;12.564;2024-01-15T00:07:07;3.3;;;1.2;;
83704;SDS011;73687;55.712;12.564;2024-01-15T00:10:06;2.3;;;1.4;;
83704;SDS011;73687;55.712;12.564;2024-01-15T00:13:06;3.2;;;1.8;;
83704;SDS011;73687;55.712;12.564;2024-01-15T00:16:06;4.0;;;2.3;;
83704;SDS011;73687;55.712;12.564;2024-01-15T00:19:06;3.2;;;1.5;;
83704;SDS011;73687;55.712;12.564;2024-01-15T00:22:06;3.8;;;2.0;;
83704;SDS011;73687;55.712;12.564;2024-01-15T00:25:06;3.7;;;1.8;;
83704;SDS011;73687;55.712;12.564;2024-01-15T00:28:06;3.3;;;1.2;;
83704;SDS011;73687;55.712;12.564;2024-01-15T00:31:06;3.0;;;1.3;;
83704;SDS011;73687;55.712;12.564;2024-01-15T00:34:06;2.4;;;1.3;;
83704;SDS011;73687;55.712;12.564;2024-01-15T00:37:07;3.0;;;1.4;;
83704;SDS011;73687;55.712;12.564;2024-01-15T00:40:07;2.4;;;1.3;;
83704;SDS011;73687;55.712;12.564;2024-01-15T00:43:06;2.8;;;1.3;;
83704;SDS011;73687;55.712;12.564;2024-01-15T00:46:06;3.9;;;1.5;;
83704;SDS011;73687;55.712;12.564;2024-01-15T00:49:06;4.0;;;1.6;;
83704;SDS011;73687;55.712;12.564;2024-01-15T00:52:06;3.1;;;1.2;;
83704;SDS011;73687;55.712;12.564;2024-01-15T00:55:07;2.8;;;1.5;;
83704;SDS011;73687;55.712;12.564;2024-01-15T00:58:07;3.8;;;1.3;;
83704;SDS011;73687;55.712;12.564;2024-01-15T01:01:07;3.1;;;1.2;;
83704;SDS011;73687;55.712;12.564;2024-01-15T01:04:06;3.8;;;1.5;;
83704;SDS011;73687;55.712;12.564;2024-01-15T01:07:06;2.4;;;1.1;;
83704;SDS011;73687;55.712;12.564;2024-01-15T01:10:06;1.4;;;0.8;;
83704;SDS011;73687;55.712;12.564;2024-01-15T01:13:06;3.7;;;1.2;;
83704;SDS011;73687;55.712;12.564;2024-01-15T01:16:06;2.5;;;1.3;;
83704;SDS011;73687;55.712;12.564;2024-01-15T01:19:07;2.6;;;1.3;;
83704;SDS011;73687;55.712;12.564;2024-01-15T01:22:07;2.2;;;1.3;;
83704;SDS011;73687;55.712;12.564;2024-01-15T01:25:07;1.9;;;1.3;;
83704;SDS011;73687;55.712;12.564;2024-01-15T01:28:06;3.0;;;1.2;;
83704;SDS011;73687;55.712;12.564;2024-01-15T01:31:06;2.6;;;1.2;;
83704;SDS011;73687;55.712;12.564;2024-01-15T01:34:06;2.5;;;1.0;;
83704;SDS011;73687;55.712;12.564;2024-01-15T01:37:07;3.0;;;1.5;;
83704;SDS011;73687;55.712;12.564;2024-01-15T01:40:08;3.4;;;1.4;;
83704;SDS011;73687;55.712;12.564;2024-01-15T01:43:08;1.9;;;0.9;;
83704;SDS011;73687;55.712;12.564;2024-01-15T01:46:06;3.0;;;1.2;;
83704;SDS011;73687;55.712;12.564;2024-01-15T01:49:06;1.2;;;0.7;;
83704;SDS011;73687;55.712;12.564;2024-01-15T01:52:07;1.5;;;0.7;;
83704;SDS011;73687;55.712;12.564;2024-01-15T01:55:07;1.4;;;0.8;;
83704;SDS011;73687;55.712;12.564;2024-01-15T01:58:06;1.8;;;0.8;;
83704;SDS011;73687;55.712;12.564;2024-01-15T02:01:07;1.2;;;0.6;;
83704;SDS011;73687;55.712;12.564;2024-01-15T02:04:06;2.2;;;0.6;;
83704;SDS011;73687;55.712;12.564;2024-01-15T02:07:07;1.6;;;0.5;;
83704;SDS011;73687;55.712;12.564;2024-01-15T02:10:07;1.4;;;0.8;;
83704;SDS011;73687;55.712;12.564;2024-01-15T02:13:07;1.2;;;0.5;;
83704;SDS011;73687;55.712;12.564;2024-01-15T02:16:07;2.9;;;0.7;;
83704;SDS011;73687;55.712;12.564;2024-01-15T02:19:07;2.6;;;1.1;;
83704;SDS011;73687;55.712;12.564;2024-01-15T02:22:07;1.2;;;0.7;;
83704;SDS011;73687;55.712;12.564;2024-01-15T02:25:07;1.6;;;0.7;;
83704;SDS011;73687;55.712;12.564;2024-01-15T02:28:07;1.2;;;0.7;;
83704;SDS011;73687;55.712;12.564;2024-01-15T02:31:07;1.0;;;0.6;;
83704;SDS011;73687;55.712;12.564;2024-01-15T02:34:07;1.0;;;0.5;;
83704;SDS011;73687;55.712;12.564;2024-01-15T02:37:06;0.9;;;0.4;;
83704;SDS011;73687;55.712;12.564;2024-01-15T02:40:07;0.9;;;0.5;;
83704;SDS011;73687;55.712;12.564;2024-01-15T02:43:07;0.9;;;0.5;;
83704;SDS011;73687;55.712;12.564;2024-01-15T02:46:07;0.6;;;0.3;;
83704;SDS011;73687;55.712;12.564;2024-01-15T02:49:07;0.9;;;0.5;;
83704;SDS011;73687;55.712;12.564;2024-01-15T02:52:07;0.7;;;0.4;;
83704;SDS011;73687;55.712;12.564;2024-01-15T02:55:07;0.5;;;0.3;;
83704;SDS011;73687;55.712;12.564;2024-01-15T02:58:07;0.8;;;0.4;;
83704;SDS011;73687;55.712;12.564;2024-01-15T03:01:07;2.3;;;0.5;;
83704;SDS011;73687;55.712;12.564;2024-01-15T03:04:07;0.8;;;0.4;;
83704;SDS011;73687;55.712;12.564;2024-01-15T03:07:07;1.2;;;0.7;;
83704;SDS011;73687;55.712;12.564;2024-01-15T03:10:07;1.0;;;0.3;;
83704;SDS011;73687;55.712;12.564;2024-01-15T03:13:07;1.0;;;0.4;;
83704;SDS011;73687;55.712;12.564;2024-01-15T03:16:07;0.3;;;0.2;;
83704;SDS011;73687;55.712;12.564;2024-01-15T03:19:07;0.5;;;0.5;;
83704;SDS011;73687;55.712;12.564;2024-01-15T03:22:07;0.5;;;0.3;;
83704;SDS011;73687;55.712;12.564;2024-01-15T03:25:07;0.7;;;0.4;;
83704;SDS011;73687;55.712;12.564;2024-01-15T03:28:07;1.2;;;0.4;;
83704;SDS011;73687;55.712;12.564;2024-01-15T03:31:07;0.6;;;0.3;;
83704;SDS011;73687;55.712;12.564;2024-01-15T03:34:07;0.7;;;0.4;;
83704;SDS011;73687;55.712;12.564;2024-01-15T03:37:07;0.5;;;0.3;;
83704;SDS011;73687;55.712;12.564;2024-01-15T03:40:07;1.0;;;0.4;;
83704;SDS011;73687;55.712;12.564;2024-01-15T03:43:06;0.5;;;0.2;;
83704;SDS011;73687;55.712;12.564;2024-01-15T03:46:06;0.9;;;0.4;;
83704;SDS011;73687;55.712;12.564;2024-01-15T03:49:06;0.7;;;0.3;;
83704;SDS011;73687;55.712;12.564;2024-01-15T03:52:06;0.4;;;0.3;;
83704;SDS011;73687;55.712;12.564;2024-01-15T03:55:07;0.6;;;0.4;;
83704;SDS011;73687;55.712;12.564;2024-01-15T03:58:06;1.0;;;0.4;;
83704;SDS011;73687;55.712;12.564;2024-01-15T04:01:08;1.0;;;0.3;;
83704;SDS011;73687;55.712;12.564;2024-01-15T04:04:06;1.5;;;0.4;;
83704;SDS011;73687;55.712;12.564;2024-01-15T04:07:07;0.5;;;0.2;;
83704;SDS011;73687;55.712;12.564;2024-01-15T04:10:07;0.4;;;0.2;;
83704;SDS011;73687;55.712;12.564;2024-01-15T04:13:06;0.8;;;0.3;;
83704;SDS011;73687;55.712;12.564;2024-01-15T04:16:07;1.6;;;0.5;;
83704;SDS011;73687;55.712;12.564;2024-01-15T04:19:07;1.2;;;0.5;;
83704;SDS011;73687;55.712;12.564;2024-01-15T04:22:07;0.6;;;0.5;;
83704;SDS011;73687;55.712;12.564;2024-01-15T04:25:07;0.9;;;0.4;;
83704;SDS011;73687;55.712;12.564;2024-01-15T04:28:07;1.1;;;0.7;;
83704;SDS011;73687;55.712;12.564;2024-01-15T04:31:07;1.4;;;0.8;;
83704;SDS011;73687;55.712;12.564;2024-01-15T04:34:07;2.5;;;0.8;;
83704;SDS011;73687;55.712;12.564;2024-01-15T04:37:07;1.0;;;0.6;;
83704;SDS011;73687;55.712;12.564;2024-01-15T04:40:07;1.0;;;0.5;;
83704;SDS011;73687;55.712;12.564;2024-01-15T04:43:07;1.0;;;0.5;;
83704;SDS011;73687;55.712;12.564;2024-01-15T04:46:07;1.0;;;0.6;;
83704;SDS011;73687;55.712;12.564;2024-01-15T04:49:07;3.2;;;1.0;;
83704;SDS011;73687;55.712;12.564;2024-01-15T04:52:07;2.3;;;0.9;;
83704;SDS011;73687;55.712;12.564;2024-01-15T04:55:07;1.3;;;0.7;;
83704;SDS011;73687;55.712;12.564;2024-01-15T04:58:07;1.3;;;0.6;;
83704;SDS011;73687;55.712;12.564;2024-01-15T05:01:07;1.4;;;0.6;;
83704;SDS011;73687;55.712;12.564;2024-01-15T05:04:07;1.4;;;0.9;;
83704;SDS011;73687;55.712;12.564;2024-01-15T05:07:12;1.3;;;0.7;;
83704;SDS011;73687;55.712;12.564;2024-01-15T05:10:07;1.8;;;0.7;;
83704;SDS011;73687;55.712;12.564;2024-01-15T05:13:07;1.3;;;0.5;;
83704;SDS011;73687;55.712;12.564;2024-01-15T05:16:07;2.0;;;1.2;;
83704;SDS011;73687;55.712;12.564;2024-01-15T05:19:07;2.0;;;1.0;;
83704;SDS011;73687;55.712;12.564;2024-01-15T05:22:07;2.0;;;1.3;;
83704;SDS011;73687;55.712;12.564;2024-01-15T05:25:07;1.3;;;0.8;;
83704;SDS011;73687;55.712;12.564;2024-01-15T05:28:07;4.0;;;0.9;;
83704;SDS011;73687;55.712;12.564;2024-01-15T05:31:07;1.9;;;1.2;;
83704;SDS011;73687;55.712;12.564;2024-01-15T05:34:07;1.9;;;1.1;;
83704;SDS011;73687;55.712;12.564;2024-01-15T05:37:07;1.6;;;1.1;;
83704;SDS011;73687;55.712;12.564;2024-01-15T05:40:07;1.5;;;0.7;;
83704;SDS011;73687;55.712;12.564;2024-01-15T05:43:07;3.0;;;0.9;;
83704;SDS011;73687;55.712;12.564;2024-01-15T05:46:07;2.7;;;1.2;;
83704;SDS011;73687;55.712;12.564;2024-01-15T05:49:07;3.1;;;0.8;;
83704;SDS011;73687;55.712;12.564;2024-01-15T05:52:07;4.3;;;1.3;;
83704;SDS011;73687;55.712;12.564;2024-01-15T05:55:07;1.9;;;1.3;;
83704;SDS011;73687;55.712;12.564;2024-01-15T05:58:07;1.7;;;1.1;;
83704;SDS011;73687;55.712;12.564;2024-01-15T06:01:07;3.0;;;0.9;;
83704;SDS011;73687;55.712;12.564;2024-01-15T06:04:07;2.2;;;1.4;;
83704;SDS011;73687;55.712;12.564;2024-01-15T06:07:07;1.4;;;0.8;;
83704;SDS011;73687;55.712;12.564;2024-01-15T06:10:07;2.6;;;1.2;;
83704;SDS011;73687;55.712;12.564;2024-01-15T06:13:07;1.9;;;1.0;;
83704;SDS011;73687;55.712;12.564;2024-01-15T06:16:12;1.4;;;1.0;;
83704;SDS011;73687;55.712;12.564;2024-01-15T06:19:07;1.1;;;0.9;;
83704;SDS011;73687;55.712;12.564;2024-01-15T06:22:07;1.3;;;0.8;;
83704;SDS011;73687;55.712;12.564;2024-01-15T06:25:07;3.7;;;1.3;;
83704;SDS011;73687;55.712;12.564;2024-01-15T06:28:07;1.6;;;0.8;;
83704;SDS011;73687;55.712;12.564;2024-01-15T06:31:07;1.1;;;0.6;;
83704;SDS011;73687;55.712;12.564;2024-01-15T06:34:07;2.1;;;0.8;;
83704;SDS011;73687;55.712;12.564;2024-01-15T06:37:07;1.4;;;0.8;;
83704;SDS011;73687;55.712;12.564;2024-01-15T06:40:07;1.8;;;0.9;;
83704;SDS011;73687;55.712;12.564;2024-01-15T06:43:06;2.2;;;0.9;;
83704;SDS011;73687;55.712;12.564;2024-01-15T06:46:06;2.0;;;0.8;;
83704;SDS011;73687;55.712;12.564;2024-01-15T06:49:06;1.7;;;1.0;;
83704;SDS011;73687;55.712;12.564;2024-01-15T06:52:07;2.1;;;1.1;;
83704;SDS011;73687;55.712;12.564;2024-01-15T06:55:07;2.2;;;1.1;;
83704;SDS011;73687;55.712;12.564;2024-01-15T06:58:07;7.6;;;6.9;;
83704;SDS011;73687;55.712;12.564;2024-01-15T07:01:07;9.2;;;8.3;;
83704;SDS011;73687;55.712;12.564;2024-01-15T07:04:07;5.2;;;4.3;;
83704;SDS011;73687;55.712;12.564;2024-01-15T07:07:07;4.8;;;2.8;;
83704;SDS011;73687;55.712;12.564;2024-01-15T07:10:07;3.2;;;1.5;;
83704;SDS011;73687;55.712;12.564;2024-01-15T07:13:08;1.5;;;0.9;;
83704;SDS011;73687;55.712;12.564;2024-01-15T07:16:06;1.2;;;0.8;;
83704;SDS011;73687;55.712;12.564;2024-01-15T07:19:06;1.0;;;0.6;;
83704;SDS011;73687;55.712;12.564;2024-01-15T07:22:07;2.0;;;0.9;;
83704;SDS011;73687;55.712;12.564;2024-01-15T07:25:07;1.9;;;0.9;;
83704;SDS011;73687;55.712;12.564;2024-01-15T07:28:07;1.7;;;0.8;;
83704;SDS011;73687;55.712;12.564;2024-01-15T07:31:07;1.4;;;0.7;;
83704;SDS011;73687;55.712;12.564;2024-01-15T07:34:07;1.7;;;0.5;;
83704;SDS011;73687;55.712;12.564;2024-01-15T07:37:07;2.1;;;0.6;;
83704;SDS011;73687;55.712;12.564;2024-01-15T07:40:07;1.3;;;0.5;;
83704;SDS011;73687;55.712;12.564;2024-01-15T07:43:07;1.1;;;0.6;;
83704;SDS011;73687;55.712;12.564;2024-01-15T07:46:07;2.6;;;0.8;;
83704;SDS011;73687;55.712;12.564;2024-01-15T07:49:07;1.5;;;0.7;;
83704;SDS011;73687;55.712;12.564;2024-01-15T07:52:07;1.1;;;0.7;;
83704;SDS011;73687;55.712;12.564;2024-01-15T07:55:07;1.1;;;0.6;;
83704;SDS011;73687;55.712;12.564;2024-01-15T07:58:07;1.8;;;0.8;;
83704;SDS011;73687;55.712;12.564;2024-01-15T08:01:07;1.5;;;0.6;;
83704;SDS011;73687;55.712;12.564;2024-01-15T08:04:07;1.8;;;0.8;;
83704;SDS011;73687;55.712;12.564;2024-01-15T08:07:07;2.2;;;1.2;;
83704;SDS011;73687;55.712;12.564;2024-01-15T08:10:07;1.2;;;0.8;;
83704;SDS011;73687;55.712;12.564;2024-01-15T08:13:07;2.2;;;0.7;;
83704;SDS011;73687;55.712;12.564;2024-01-15T08:16:06;1.9;;;1.1;;
83704;SDS011;73687;55.712;12.564;2024-01-15T08:19:06;1.5;;;0.6;;
83704;SDS011;73687;55.712;12.564;2024-01-15T08:22:06;1.3;;;0.7;;
83704;SDS011;73687;55.712;12.564;2024-01-15T08:25:07;1.4;;;0.8;;
83704;SDS011;73687;55.712;12.564;2024-01-15T08:28:07;1.5;;;1.0;;
83704;SDS011;73687;55.712;12.564;2024-01-15T08:31:07;0.9;;;0.7;;
83704;SDS011;73687;55.712;12.564;2024-01-15T08:34:07;2.4;;;0.8;;
83704;SDS011;73687;55.712;12.564;2024-01-15T08:37:07;2.3;;;0.9;;
83704;SDS011;73687;55.712;12.564;2024-01-15T08:40:07;1.9;;;0.9;;
83704;SDS011;73687;55.712;12.564;2024-01-15T08:43:07;1.5;;;0.9;;
83704;SDS011;73687;55.712;12.564;2024-01-15T08:46:07;0.8;;;0.4;;
83704;SDS011;73687;55.712;12.564;2024-01-15T08:49:07;1.6;;;0.7;;
83704;SDS011;73687;55.712;12.564;2024-01-15T08:52:06;1.1;;;0.6;;
83704;SDS011;73687;55.712;12.564;2024-01-15T08:55:07;2.0;;;0.8;;
83704;SDS011;73687;55.712;12.564;2024-01-15T08:58:07;1.6;;;0.9;;
83704;SDS011;73687;55.712;12.564;2024-01-15T09:01:07;1.2;;;0.8;;
83704;SDS011;73687;55.712;12.564;2024-01-15T09:04:07;1.1;;;0.7;;
83704;SDS011;73687;55.712;12.564;2024-01-15T09:07:07;2.0;;;0.7;;
83704;SDS011;73687;55.712;12.564;2024-01-15T09:10:08;1.3;;;0.7;;
83704;SDS011;73687;55.712;12.564;2024-01-15T09:13:07;1.0;;;0.6;;
83704;SDS011;73687;55.712;12.564;2024-01-15T09:16:07;1.2;;;0.6;;
83704;SDS011;73687;55.712;12.564;2024-01-15T09:19:07;2.1;;;0.7;;
83704;SDS011;73687;55.712;12.564;2024-01-15T09:22:07;2.6;;;0.6;;
83704;SDS011;73687;55.712;12.564;2024-01-15T09:25:07;1.6;;;0.9;;
83704;SDS011;73687;55.712;12.564;2024-01-15T09:28:07;2.6;;;0.9;;
83704;SDS011;73687;55.712;12.564;2024-01-15T09:31:07;1.8;;;0.5;;
83704;SDS011;73687;55.712;12.564;2024-01-15T09:34:07;1.3;;;1.0;;
83704;SDS011;73687;55.712;12.564;2024-01-15T09:37:07;1.7;;;0.9;;
83704;SDS011;73687;55.712;12.564;2024-01-15T09:40:07;1.0;;;0.5;;
83704;SDS011;73687;55.712;12.564;2024-01-15T09:43:06;2.2;;;0.5;;
83704;SDS011;73687;55.712;12.564;2024-01-15T09:46:06;0.8;;;0.5;;
83704;SDS011;73687;55.712;12.564;2024-01-15T09:49:06;0.7;;;0.4;;
83704;SDS011;73687;55.712;12.564;2024-01-15T09:52:06;0.9;;;0.6;;
83704;SDS011;73687;55.712;12.564;2024-01-15T09:55:07;0.8;;;0.5;;
83704;SDS011;73687;55.712;12.564;2024-01-15T09:58:07;0.7;;;0.5;;
83704;SDS011;73687;55.712;12.564;2024-01-15T10:01:07;1.1;;;0.5;;
83704;SDS011;73687;55.712;12.564;2024-01-15T10:04:07;1.1;;;0.6;;
83704;SDS011;73687;55.712;12.564;2024-01-15T10:07:07;1.0;;;0.4;;
83704;SDS011;73687;55.712;12.564;2024-01-15T10:10:07;1.0;;;0.5;;
83704;SDS011;73687;55.712;12.564;2024-01-15T10:13:07;1.5;;;0.7;;
83704;SDS011;73687;55.712;12.564;2024-01-15T10:16:07;0.6;;;0.4;;
83704;SDS011;73687;55.712;12.564;2024-01-15T10:19:07;0.8;;;0.3;;
83704;SDS011;73687;55.712;12.564;2024-01-15T10:22:07;1.2;;;0.6;;
83704;SDS011;73687;55.712;12.564;2024-01-15T10:25:09;1.0;;;0.4;;
83704;SDS011;73687;55.712;12.564;2024-01-15T10:28:07;1.4;;;0.5;;
83704;SDS011;73687;55.712;12.564;2024-01-15T10:31:12;1.2;;;0.8;;
83704;SDS011;73687;55.712;12.564;2024-01-15T10:34:10;1.1;;;0.6;;
83704;SDS011;73687;55.712;12.564;2024-01-15T10:37:07;0.8;;;0.5;;
83704;SDS011;73687;55.712;12.564;2024-01-15T10:40:07;0.4;;;0.4;;
83704;SDS011;73687;55.712;12.564;2024-01-15T10:43:07;0.9;;;0.6;;
83704;SDS011;73687;55.712;12.564;2024-01-15T10:46:07;0.7;;;0.3;;
83704;SDS011;73687;55.712;12.564;2024-01-15T10:49:07;0.7;;;0.3;;
83704;SDS011;73687;55.712;12.564;2024-01-15T10:52:07;0.9;;;0.4;;
83704;SDS011;73687;55.712;12.564;2024-01-15T10:55:07;0.6;;;0.3;;
83704;SDS011;73687;55.712;12.564;2024-01-15T10:58:07;1.3;;;0.4;;
83704;SDS011;73687;55.712;12.564;2024-01-15T11:01:07;1.5;;;0.5;;
83704;SDS011;73687;55.712;12.564;2024-01-15T11:04:07;0.7;;;0.4;;
83704;SDS011;73687;55.712;12.564;2024-01-15T11:07:07;1.1;;;0.5;;
83704;SDS011;73687;55.712;12.564;2024-01-15T11:10:07;1.1;;;0.7;;
83704;SDS011;73687;55.712;12.564;2024-01-15T11:13:08;1.3;;;0.6;;
83704;SDS011;73687;55.712;12.564;2024-01-15T11:16:07;0.4;;;0.3;;
83704;SDS011;73687;55.712;12.564;2024-01-15T11:19:06;0.6;;;0.4;;
83704;SDS011;73687;55.712;12.564;2024-01-15T11:22:08;0.9;;;0.4;;
83704;SDS011;73687;55.712;12.564;2024-01-15T11:25:12;1.5;;;0.5;;
83704;SDS011;73687;55.712;12.564;2024-01-15T11:28:06;0.4;;;0.3;;
83704;SDS011;73687;55.712;12.564;2024-01-15T11:31:07;0.8;;;0.5;;
83704;SDS011;73687;55.712;12.564;2024-01-15T11:34:07;1.0;;;0.7;;
83704;SDS011;73687;55.712;12.564;2024-01-15T11:37:07;1.5;;;0.8;;
83704;SDS011;73687;55.712;12.564;2024-01-15T11:40:07;0.9;;;0.6;;
83704;SDS011;73687;55.712;12.564;2024-01-15T11:43:07;0.9;;;0.4;;
83704;SDS011;73687;55.712;12.564;2024-01-15T11:46:08;1.5;;;0.4;;
83704;SDS011;73687;55.712;12.564;2024-01-15T11:49:07;1.2;;;0.7;;
83704;SDS011;73687;55.712;12.564;2024-01-15T11:52:07;1.1;;;0.6;;
83704;SDS011;73687;55.712;12.564;2024-01-15T11:55:10;1.3;;;0.7;;
83704;SDS011;73687;55.712;12.564;2024-01-15T11:58:07;2.0;;;0.6;;
83704;SDS011;73687;55.712;12.564;2024-01-15T12:01:07;1.4;;;0.5;;
83704;SDS011;73687;55.712;12.564;2024-01-15T12:04:07;1.1;;;0.7;;
83704;SDS011;73687;55.712;12.564;2024-01-15T12:07:07;0.9;;;0.4;;
83704;SDS011;73687;55.712;12.564;2024-01-15T12:10:08;0.5;;;0.3;;
83704;SDS011;73687;55.712;12.564;2024-01-15T12:13:09;0.9;;;0.4;;
83704;SDS011;73687;55.712;12.564;2024-01-15T12:16:06;1.3;;;0.5;;
83704;SDS011;73687;55.712;12.564;2024-01-15T12:19:06;1.2;;;0.5;;
83704;SDS011;73687;55.712;12.564;2024-01-15T12:22:06;1.7;;;0.5;;
83704;SDS011;73687;55.712;12.564;2024-01-15T12:25:06;0.8;;;0.5;;
83704;SDS011;73687;55.712;12.564;2024-01-15T12:28:06;0.7;;;0.4;;
83704;SDS011;73687;55.712;12.564;2024-01-15T12:31:06;0.9;;;0.4;;
83704;SDS011;73687;55.712;12.564;2024-01-15T12:34:06;1.7;;;0.4;;
83704;SDS011;73687;55.712;12.564;2024-01-15T12:37:06;1.0;;;0.5;;
83704;SDS011;73687;55.712;12.564;2024-01-15T12:40:07;0.4;;;0.4;;
83704;SDS011;73687;55.712;12.564;2024-01-15T12:43:06;1.7;;;0.4;;
83704;SDS011;73687;55.712;12.564;2024-01-15T12:46:06;0.6;;;0.4;;
83704;SDS011;73687;55.712;12.564;2024-01-15T12:49:07;0.6;;;0.4;;
83704;SDS011;73687;55.712;12.564;2024-01-15T12:52:08;1.2;;;0.9;;
83704;SDS011;73687;55.712;12.564;2024-01-15T12:55:07;0.8;;;0.7;;
83704;SDS011;73687;55.712;12.564;2024-01-15T12:58:07;0.9;;;0.4;;
83704;SDS011;73687;55.712;12.564;2024-01-15T13:01:07;1.2;;;0.5;;
83704;SDS011;73687;55.712;12.564;2024-01-15T13:04:07;0.8;;;0.5;;
83704;SDS011;73687;55.712;12.564;2024-01-15T13:07:07;1.7;;;0.7;;
83704;SDS011;73687;55.712;12.564;2024-01-15T13:10:07;1.5;;;1.0;;
83704;SDS011;73687;55.712;12.564;2024-01-15T13:13:07;0.8;;;0.6;;
83704;SDS011;73687;55.712;12.564;2024-01-15T13:16:07;1.4;;;0.8;;
83704;SDS011;73687;55.712;12.564;2024-01-15T13:19:07;0.9;;;0.5;;
83704;SDS011;73687;55.712;12.564;2024-01-15T13:22:07;1.4;;;0.7;;
83704;SDS011;73687;55.712;12.564;2024-01-15T13:25:07;0.9;;;0.5;;
83704;SDS011;73687;55.712;12.564;2024-01-15T13:28:07;0.8;;;0.6;;
83704;SDS011;73687;55.712;12.564;2024-01-15T13:31:07;1.4;;;0.7;;
83704;SDS011;73687;55.712;12.564;2024-01-15T13:34:07;0.9;;;0.5;;
83704;SDS011;73687;55.712;12.564;2024-01-15T13:37:07;0.9;;;0.5;;
83704;SDS011;73687;55.712;12.564;2024-01-15T13:40:07;0.9;;;0.6;;
83704;SDS011;73687;55.712;12.564;2024-01-15T13:43:07;0.9;;;0.4;;
83704;SDS011;73687;55.712;12.564;2024-01-15T13:46:06;2.1;;;0.7;;
83704;SDS011;73687;55.712;12.564;2024-01-15T13:49:07;0.5;;;0.2;;
83704;SDS011;73687;55.712;12.564;2024-01-15T13:52:07;1.0;;;0.5;;
83704;SDS011;73687;55.712;12.564;2024-01-15T13:55:07;1.1;;;0.5;;
83704;SDS011;73687;55.712;12.564;2024-01-15T13:58:07;0.5;;;0.4;;
83704;SDS011;73687;55.712;12.564;2024-01-15T14:01:07;1.3;;;0.5;;
83704;SDS011;73687;55.712;12.564;2024-01-15T14:04:07;0.9;;;0.5;;
83704;SDS011;73687;55.712;12.564;2024-01-15T14:07:07;1.1;;;0.9;;
83704;SDS011;73687;55.712;12.564;2024-01-15T14:10:07;1.3;;;1.0;;
83704;SDS011;73687;55.712;12.564;2024-01-15T14:13:07;1.2;;;0.7;;
83704;SDS011;73687;55.712;12.564;2024-01-15T14:16:07;1.1;;;0.6;;
83704;SDS011;73687;55.712;12.564;2024-01-15T14:19:07;0.8;;;0.4;;
83704;SDS011;73687;55.712;12.564;2024-01-15T14:22:07;1.4;;;0.4;;
83704;SDS011;73687;55.712;12.564;2024-01-15T14:25:07;1.2;;;0.5;;
83704;SDS011;73687;55.712;12.564;2024-01-15T14:28:07;0.6;;;0.4;;
83704;SDS011;73687;55.712;12.564;2024-01-15T14:31:07;0.6;;;0.4;;
83704;SDS011;73687;55.712;12.564;2024-01-15T14:34:07;1.3;;;0.6;;
83704;SDS011;73687;55.712;12.564;2024-01-15T14:37:07;1.0;;;0.6;;
83704;SDS011;73687;55.712;12.564;2024-01-15T14:40:07;2.7;;;1.9;;
83704;SDS011;73687;55.712;12.564;2024-01-15T14:43:07;1.3;;;1.0;;
83704;SDS011;73687;55.712;12.564;2024-01-15T14:46:07;1.4;;;0.6;;
83704;SDS011;73687;55.712;12.564;2024-01-15T14:49:07;1.0;;;0.5;;
83704;SDS011;73687;55.712;12.564;2024-01-15T14:52:07;1.6;;;0.4;;
83704;SDS011;73687;55.712;12.564;2024-01-15T14:55:07;0.8;;;0.5;;
83704;SDS011;73687;55.712;12.564;2024-01-15T14:58:07;0.9;;;0.6;;
83704;SDS011;73687;55.712;12.564;2024-01-15T15:01:07;0.7;;;0.5;;
83704;SDS011;73687;55.712;12.564;2024-01-15T15:04:07;1.1;;;0.3;;
83704;SDS011;73687;55.712;12.564;2024-01-15T15:07:07;0.8;;;0.6;;
83704;SDS011;73687;55.712;12.564;2024-01-15T15:10:07;1.1;;;0.5;;
83704;SDS011;73687;55.712;12.564;2024-01-15T15:13:07;1.0;;;0.5;;
83704;SDS011;73687;55.712;12.564;2024-01-15T15:16:07;0.8;;;0.5;;
83704;SDS011;73687;55.712;12.564;2024-01-15T15:19:07;1.4;;;0.8;;
83704;SDS011;73687;55.712;12.564;2024-01-15T15:22:07;1.2;;;0.8;;
83704;SDS011;73687;55.712;12.564;2024-01-15T15:25:07;1.1;;;0.5;;
83704;SDS011;73687;55.712;12.564;2024-01-15T15:28:07;1.4;;;0.7;;
83704;SDS011;73687;55.712;12.564;2024-01-15T15:31:08;0.7;;;0.5;;
83704;SDS011;73687;55.712;12.564;2024-01-15T15:34:07;1.0;;;0.4;;
83704;SDS011;73687;55.712;12.564;2024-01-15T15:37:07;0.8;;;0.4;;
83704;SDS011;73687;55.712;12.564;2024-01-15T15:40:08;0.8;;;0.4;;
83704;SDS011;73687;55.712;12.564;2024-01-15T15:43:07;1.0;;;0.6;;
83704;SDS011;73687;55.712;12.564;2024-01-15T15:46:07;1.0;;;0.6;;
83704;SDS011;73687;55.712;12.564;2024-01-15T15:49:07;1.3;;;0.6;;
83704;SDS011;73687;55.712;12.564;2024-01-15T15:52:07;1.5;;;0.8;;
83704;SDS011;73687;55.712;12.564;2024-01-15T15:55:07;1.3;;;0.8;;
83704;SDS011;73687;55.712;12.564;2024-01-15T15:58:07;1.3;;;0.7;;
83704;SDS011;73687;55.712;12.564;2024-01-15T16:01:07;1.8;;;0.7;;
83704;SDS011;73687;55.712;12.564;2024-01-15T16:04:07;1.3;;;0.7;;
83704;SDS011;73687;55.712;12.564;2024-01-15T16:07:07;0.6;;;0.4;;
83704;SDS011;73687;55.712;12.564;2024-01-15T16:10:07;0.8;;;0.6;;
83704;SDS011;73687;55.712;12.564;2024-01-15T16:13:06;16.6;;;14.8;;
83704;SDS011;73687;55.712;12.564;2024-01-15T16:16:07;19.1;;;17.2;;
83704;SDS011;73687;55.712;12.564;2024-01-15T16:19:07;10.9;;;8.1;;
83704;SDS011;73687;55.712;12.564;2024-01-15T16:22:07;6.7;;;5.2;;
83704;SDS011;73687;55.712;12.564;2024-01-15T16:25:07;4.1;;;3.1;;
83704;SDS011;73687;55.712;12.564;2024-01-15T16:28:07;2.7;;;1.9;;
83704;SDS011;73687;55.712;12.564;2024-01-15T16:31:07;1.7;;;1.4;;
83704;SDS011;73687;55.712;12.564;2024-01-15T16:34:07;1.8;;;1.0;;
83704;SDS011;73687;55.712;12.564;2024-01-15T16:37:07;1.2;;;0.7;;
83704;SDS011;73687;55.712;12.564;2024-01-15T16:40:07;1.3;;;0.8;;
83704;SDS011;73687;55.712;12.564;2024-01-15T16:43:06;1.5;;;1.1;;
83704;SDS011;73687;55.712;12.564;2024-01-15T16:46:06;1.8;;;1.3;;
83704;SDS011;73687;55.712;12.564;2024-01-15T16:49:06;1.3;;;0.9;;
83704;SDS011;73687;55.712;12.564;2024-01-15T16:52:07;1.1;;;0.7;;
83704;SDS011;73687;55.712;12.564;2024-01-15T16:55:07;0.9;;;0.6;;
83704;SDS011;73687;55.712;12.564;2024-01-15T16:58:06;1.4;;;0.7;;
83704;SDS011;73687;55.712;12.564;2024-01-15T17:01:07;3.0;;;1.6;;
83704;SDS011;73687;55.712;12.564;2024-01-15T17:04:06;2.6;;;1.5;;
83704;SDS011;73687;55.712;12.564;2024-01-15T17:07:06;2.4;;;1.2;;
83704;SDS011;73687;55.712;12.564;2024-01-15T17:10:07;1.9;;;1.1;;
83704;SDS011;73687;55.712;12.564;2024-01-15T17:13:06;2.0;;;1.0;;
83704;SDS011;73687;55.712;12.564;2024-01-15T17:16:06;1.5;;;1.1;;
83704;SDS011;73687;55.712;12.564;2024-01-15T17:19:06;1.6;;;1.0;;
83704;SDS011;73687;55.712;12.564;2024-01-15T17:22:06;20.9;;;18.7;;
83704;SDS011;73687;55.712;12.564;2024-01-15T17:25:07;24.0;;;21.6;;
83704;SDS011;73687;55.712;12.564;2024-01-15T17:28:07;12.9;;;11.6;;
83704;SDS011;73687;55.712;12.564;2024-01-15T17:31:06;8.6;;;7.6;;
83704;SDS011;73687;55.712;12.564;2024-01-15T17:34:06;5.2;;;4.4;;
83704;SDS011;73687;55.712;12.564;2024-01-15T17:37:06;3.8;;;3.2;;
83704;SDS011;73687;55.712;12.564;2024-01-15T17:40:07;3.1;;;2.0;;
83704;SDS011;73687;55.712;12.564;2024-01-15T17:43:07;2.6;;;1.7;;
83704;SDS011;73687;55.712;12.564;2024-01-15T17:46:07;1.9;;;1.4;;
83704;SDS011;73687;55.712;12.564;2024-01-15T17:49:07;2.6;;;1.5;;
83704;SDS011;73687;55.712;12.564;2024-01-15T17:52:07;1.8;;;1.2;;
83704;SDS011;73687;55.712;12.564;2024-01-15T17:55:07;1.4;;;1.0;;
83704;SDS011;73687;55.712;12.564;2024-01-15T17:58:07;2.1;;;1.2;;
83704;SDS011;73687;55.712;12.564;2024-01-15T18:01:07;1.4;;;1.2;;
83704;SDS011;73687;55.712;12.564;2024-01-15T18:04:07;1.8;;;1.3;;
83704;SDS011;73687;55.712;12.564;2024-01-15T18:07:06;1.9;;;1.2;;
83704;SDS011;73687;55.712;12.564;2024-01-15T18:10:07;2.0;;;1.2;;
83704;SDS011;73687;55.712;12.564;2024-01-15T18:13:07;2.8;;;1.5;;
83704;SDS011;73687;55.712;12.564;2024-01-15T18:16:07;1.4;;;1.0;;
83704;SDS011;73687;55.712;12.564;2024-01-15T18:19:07;1.5;;;1.3;;